createdAt,value
2022-09-18T00:09:42.137Z,7.13
2022-09-18T00:12:10.209Z,8.20
2022-09-18T00:14:38.771Z,4.00
2022-09-18T00:17:09.203Z,4.03
2022-09-18T00:19:37.434Z,5.43
2022-09-18T00:22:05.734Z,3.00
2022-09-18T00:24:33.803Z,3.63
2022-09-18T00:27:03.191Z,4.57
2022-09-18T00:29:31.313Z,4.30
2022-09-18T00:31:59.940Z,2.60
2022-09-18T00:34:28.050Z,4.43
2022-09-18T00:36:56.098Z,5.53
2022-09-18T00:39:24.386Z,5.87
2022-09-18T00:41:52.483Z,4.27
2022-09-18T00:44:40.755Z,8.30
2022-09-18T00:47:25.493Z,5.03
2022-09-18T00:50:00.562Z,5.27
2022-09-18T00:52:34.281Z,5.20
2022-09-18T00:55:08.257Z,4.33
2022-09-18T00:57:41.472Z,5.70
2022-09-18T01:00:14.470Z,1.87
2022-09-18T01:02:45.498Z,6.20
2022-09-18T01:05:15.828Z,5.80
2022-09-18T01:07:56.962Z,6.23
2022-09-18T01:10:39.932Z,5.80
2022-09-18T01:13:15.705Z,7.53
2022-09-18T01:15:52.514Z,5.10
2022-09-18T01:18:32.787Z,4.30
2022-09-18T01:21:10.419Z,4.07
2022-09-18T01:24:08.825Z,4.97
2022-09-18T01:26:50.243Z,6.53
2022-09-18T01:29:27.043Z,3.33
2022-09-18T01:32:00.361Z,3.70
2022-09-18T01:34:34.283Z,4.10
2022-09-18T01:37:08.203Z,5.87
2022-09-18T01:39:42.394Z,4.47
2022-09-18T01:42:13.389Z,3.30
2022-09-18T01:44:45.623Z,4.13
2022-09-18T01:47:17.418Z,3.87
2022-09-18T01:49:48.347Z,4.30
2022-09-18T01:52:23.346Z,7.13
2022-09-18T01:54:53.192Z,7.27
2022-09-18T01:57:25.217Z,6.53
2022-09-18T01:59:58.596Z,3.60
2022-09-18T02:02:31.099Z,4.37
2022-09-18T02:05:01.738Z,5.63
2022-09-18T02:07:36.841Z,3.33
2022-09-18T02:10:05.974Z,6.23
2022-09-18T02:12:38.998Z,5.27
2022-09-18T02:15:12.851Z,5.33
2022-09-18T02:17:44.465Z,4.70
2022-09-18T02:20:20.398Z,7.47
2022-09-18T02:22:50.871Z,4.73
2022-09-18T02:25:21.989Z,5.53
2022-09-18T02:27:52.102Z,2.93
2022-09-18T02:30:21.668Z,3.07
2022-09-18T02:32:53.974Z,3.97
2022-09-18T02:35:22.778Z,6.53
2022-09-18T02:37:58.933Z,4.87
2022-09-18T02:40:39.718Z,4.23
2022-09-18T02:43:19.692Z,4.73
2022-09-18T02:45:55.234Z,4.37
2022-09-18T02:48:42.380Z,3.23
2022-09-18T02:51:19.454Z,5.50
2022-09-18T02:53:52.864Z,4.47
2022-09-18T02:56:28.662Z,6.27
2022-09-18T02:59:02.486Z,6.37
2022-09-18T03:07:02.592Z,4.03
2022-09-18T03:09:32.372Z,4.67
2022-09-18T03:12:00.357Z,3.10
2022-09-18T03:14:28.457Z,3.63
2022-09-18T03:16:56.471Z,3.80
2022-09-18T03:19:24.529Z,3.70
2022-09-18T03:21:52.985Z,1.90
2022-09-18T03:24:25.251Z,5.07
2022-09-18T03:26:53.943Z,4.10
2022-09-18T03:29:21.995Z,2.77
2022-09-18T03:31:50.068Z,4.10
2022-09-18T03:34:18.171Z,6.40
2022-09-18T03:36:47.082Z,5.40
2022-09-18T03:39:16.304Z,8.33
2022-09-18T03:41:45.822Z,4.93
2022-09-18T03:44:13.809Z,7.23
2022-09-18T03:46:41.874Z,2.47
2022-09-18T03:49:10.086Z,3.90
2022-09-18T03:51:38.118Z,4.70
2022-09-18T03:54:06.329Z,4.07
2022-09-18T03:56:34.386Z,3.53
2022-09-18T03:59:03.984Z,2.13
2022-09-18T04:01:32.060Z,5.03
2022-09-18T04:04:00.111Z,4.97
2022-09-18T04:06:28.218Z,2.27
2022-09-18T04:08:56.239Z,2.23
2022-09-18T04:11:24.275Z,3.57
2022-09-18T04:13:52.352Z,2.27
2022-09-18T04:16:21.819Z,3.60
2022-09-18T04:18:49.923Z,6.10
2022-09-18T04:21:17.939Z,4.67
2022-09-18T04:23:45.943Z,5.50
2022-09-18T04:26:13.956Z,5.20
2022-09-18T04:28:41.967Z,4.03
2022-09-18T04:31:11.556Z,5.57
2022-09-18T04:33:41.015Z,5.50
2022-09-18T04:36:09.060Z,4.33
2022-09-18T04:38:38.157Z,4.13
2022-09-18T04:41:06.605Z,5.63
2022-09-18T04:43:34.617Z,6.33
2022-09-18T04:46:02.698Z,4.37
2022-09-18T04:48:30.759Z,3.37
2022-09-18T04:51:00.149Z,4.30
2022-09-18T04:53:28.504Z,1.97
2022-09-18T04:55:56.502Z,4.20
2022-09-18T04:58:24.656Z,2.20
2022-09-18T05:00:52.693Z,4.50
2022-09-18T05:03:22.551Z,4.53
2022-09-18T05:05:51.104Z,4.23
2022-09-18T05:08:20.457Z,4.03
2022-09-18T05:11:25.682Z,4.87
2022-09-18T05:13:56.696Z,3.80
2022-09-18T05:16:25.117Z,4.27
2022-09-18T05:18:53.588Z,2.00
2022-09-18T05:21:21.570Z,3.43
2022-09-18T05:23:50.953Z,6.20
2022-09-18T05:26:19.031Z,5.00
2022-09-18T05:28:50.855Z,6.87
2022-09-18T05:31:19.179Z,2.70
2022-09-18T05:33:47.212Z,4.10
2022-09-18T05:36:15.238Z,1.77
2022-09-18T05:38:43.217Z,4.03
2022-09-18T05:41:12.793Z,1.77
2022-09-18T05:43:44.338Z,6.67
2022-09-18T05:46:12.734Z,3.07
2022-09-18T05:48:41.032Z,5.97
2022-09-18T05:51:09.056Z,3.87
2022-09-18T05:53:37.108Z,4.33
2022-09-18T05:56:05.611Z,4.27
2022-09-18T05:58:34.961Z,5.27
2022-09-18T06:01:04.686Z,2.77
2022-09-18T06:03:32.730Z,3.07
2022-09-18T06:06:00.761Z,3.23
2022-09-18T06:08:28.766Z,7.00
2022-09-18T06:10:56.782Z,4.33
2022-09-18T06:13:24.832Z,4.97
2022-09-18T06:15:54.386Z,2.70
2022-09-18T06:18:22.541Z,1.70
2022-09-18T06:20:54.577Z,2.33
2022-09-18T06:23:23.401Z,4.53
2022-09-18T06:25:58.881Z,2.57
2022-09-18T06:28:28.412Z,3.90
2022-09-18T06:30:58.893Z,2.93
2022-09-18T06:33:27.085Z,2.27
2022-09-18T06:35:55.333Z,3.00
2022-09-18T06:38:23.345Z,3.27
2022-09-18T06:40:51.958Z,2.73
2022-09-18T06:43:20.466Z,2.33
2022-09-18T06:45:53.437Z,2.03
2022-09-18T06:48:23.057Z,3.13
2022-09-18T06:50:55.604Z,3.13
2022-09-18T06:53:24.071Z,1.30
2022-09-18T06:55:52.237Z,3.03
2022-09-18T06:58:21.446Z,1.47
2022-09-18T07:00:49.498Z,2.70
2022-09-18T07:03:17.580Z,2.37
2022-09-18T07:05:46.964Z,2.93
2022-09-18T07:08:15.212Z,1.50
2022-09-18T07:10:43.285Z,6.30
2022-09-18T07:13:11.317Z,2.03
2022-09-18T07:15:39.538Z,5.53
2022-09-18T07:18:08.132Z,3.37
2022-09-18T07:20:36.322Z,2.63
2022-09-18T07:23:06.110Z,1.47
2022-09-18T07:25:34.841Z,2.20
2022-09-18T07:28:08.205Z,2.23
2022-09-18T07:30:36.376Z,4.03
2022-09-18T07:33:05.597Z,2.87
2022-09-18T07:35:34.147Z,2.30
2022-09-18T07:38:02.673Z,2.47
2022-09-18T07:40:32.101Z,5.33
2022-09-18T07:43:00.966Z,2.20
2022-09-18T07:45:29.400Z,3.10
2022-09-18T07:47:57.978Z,3.57
2022-09-18T07:50:26.020Z,2.27
2022-09-18T07:52:56.145Z,2.77
2022-09-18T07:55:25.471Z,3.87
2022-09-18T07:57:58.227Z,1.87
2022-09-18T08:00:27.074Z,3.77
2022-09-18T08:03:03.372Z,1.83
2022-09-18T08:05:31.986Z,2.73
2022-09-18T08:08:04.357Z,3.33
2022-09-18T08:10:33.462Z,4.13
2022-09-18T08:13:03.776Z,2.87
2022-09-18T08:15:32.122Z,4.17
2022-09-18T08:18:00.283Z,1.70
2022-09-18T08:20:28.675Z,4.63
2022-09-18T08:22:56.824Z,7.17
2022-09-18T08:25:24.830Z,3.10
2022-09-18T08:27:52.961Z,4.43
2022-09-18T08:30:22.421Z,3.57
2022-09-18T08:32:50.433Z,4.00
2022-09-18T08:35:18.508Z,3.93
2022-09-18T08:37:49.827Z,1.70
2022-09-18T08:40:19.718Z,6.73
2022-09-18T08:43:00.652Z,2.97
2022-09-18T08:45:43.275Z,4.83
2022-09-18T08:48:16.487Z,2.20
2022-09-18T08:50:57.830Z,1.50
2022-09-18T08:53:33.900Z,2.20
2022-09-18T08:56:05.572Z,2.80
2022-09-18T08:58:40.259Z,1.90
2022-09-18T09:01:13.525Z,3.30
2022-09-18T09:03:52.474Z,3.93
2022-09-18T09:06:34.865Z,3.30
2022-09-18T09:09:37.454Z,2.20
2022-09-18T09:12:14.663Z,2.73
2022-09-18T09:14:58.042Z,3.80
2022-09-18T09:17:41.286Z,2.33
2022-09-18T09:20:24.126Z,5.70
2022-09-18T09:23:01.828Z,1.13
2022-09-18T09:25:39.157Z,4.07
2022-09-18T09:28:17.882Z,1.90
2022-09-18T09:30:50.175Z,3.53
2022-09-18T09:33:23.353Z,4.00
2022-09-18T09:35:55.770Z,3.30
2022-09-18T09:38:48.363Z,3.63
2022-09-18T09:41:24.081Z,5.63
2022-09-18T09:44:01.684Z,1.90
2022-09-18T09:46:48.054Z,1.60
2022-09-18T09:49:22.352Z,2.10
2022-09-18T09:51:58.075Z,2.87
2022-09-18T09:54:26.446Z,1.43
2022-09-18T09:57:01.218Z,1.57
2022-09-18T09:59:38.220Z,1.70
2022-09-18T10:02:27.445Z,1.67
2022-09-18T10:05:03.996Z,4.33
2022-09-18T10:07:36.064Z,2.40
2022-09-18T10:10:15.504Z,4.23
2022-09-18T10:12:51.862Z,2.37
2022-09-18T10:15:24.370Z,2.03
2022-09-18T10:17:56.915Z,4.50
2022-09-18T10:20:31.679Z,3.17
2022-09-18T10:23:04.254Z,1.03
2022-09-18T10:25:39.535Z,1.43
2022-09-18T10:28:10.123Z,1.77
2022-09-18T10:30:54.510Z,3.93
2022-09-18T10:33:41.966Z,1.23
2022-09-18T10:36:24.138Z,2.07
2022-09-18T10:38:52.983Z,1.37
2022-09-18T10:41:28.555Z,4.83
2022-09-18T10:44:00.151Z,2.33
2022-09-18T10:46:30.448Z,3.63
2022-09-18T10:49:03.849Z,2.67
2022-09-18T10:51:33.278Z,3.10
2022-09-18T10:54:04.633Z,2.63
2022-09-18T10:56:33.626Z,4.43
2022-09-18T10:59:33.042Z,3.87
2022-09-18T11:02:02.975Z,1.97
2022-09-18T11:04:32.158Z,2.70
2022-09-18T11:07:07.352Z,2.40
2022-09-18T11:09:39.546Z,3.50
2022-09-18T11:12:16.567Z,2.87
2022-09-18T11:14:48.313Z,1.63
2022-09-18T11:17:25.579Z,3.73
2022-09-18T11:19:56.309Z,3.07
2022-09-18T11:22:35.537Z,2.57
2022-09-18T11:25:19.957Z,1.30
2022-09-18T11:27:49.860Z,2.67
2022-09-18T11:30:22.861Z,3.57
2022-09-18T11:32:53.872Z,1.93
2022-09-18T11:35:23.456Z,2.23
2022-09-18T11:37:55.466Z,2.40
2022-09-18T11:40:25.937Z,2.93
2022-09-18T11:42:55.394Z,4.70
2022-09-18T11:45:35.969Z,3.93
2022-09-18T11:48:12.908Z,4.10
2022-09-18T11:50:41.094Z,2.63
2022-09-18T11:53:16.375Z,1.47
2022-09-18T11:55:49.747Z,3.77
2022-09-18T11:58:22.441Z,2.63
2022-09-18T12:00:55.336Z,1.40
2022-09-18T12:03:28.979Z,6.40
2022-09-18T12:06:01.584Z,1.90
2022-09-18T12:08:40.181Z,3.03
2022-09-18T12:11:18.423Z,2.90
2022-09-18T12:13:54.290Z,0.97
2022-09-18T12:16:28.397Z,3.40
2022-09-18T12:19:02.333Z,2.43
2022-09-18T12:21:41.063Z,1.70
2022-09-18T12:24:14.901Z,4.10
2022-09-18T12:26:51.660Z,2.20
2022-09-18T12:29:31.579Z,1.17
2022-09-18T12:32:07.194Z,3.17
2022-09-18T12:34:44.570Z,3.50
2022-09-18T12:37:22.841Z,3.53
2022-09-18T12:40:11.364Z,3.33
2022-09-18T12:42:49.707Z,2.60
2022-09-18T12:45:59.710Z,2.27
2022-09-18T12:48:45.634Z,0.80
2022-09-18T12:51:34.418Z,2.10
2022-09-18T12:54:18.294Z,2.93
2022-09-18T12:57:00.932Z,2.90
2022-09-18T12:59:42.934Z,4.77
2022-09-18T13:02:24.536Z,2.43
2022-09-18T13:04:57.918Z,3.10
2022-09-18T13:07:29.633Z,2.73
2022-09-18T13:10:06.114Z,3.20
2022-09-18T13:12:41.247Z,3.03
2022-09-18T13:23:23.584Z,2.90
2022-09-18T13:25:53.156Z,4.60
2022-09-18T13:28:24.345Z,2.47
2022-09-18T13:31:20.041Z,1.60
2022-09-18T13:33:52.895Z,1.50
2022-09-18T13:36:29.384Z,1.83
2022-09-18T13:38:59.893Z,3.27
2022-09-18T13:41:29.410Z,3.77
2022-09-18T13:44:00.306Z,3.40
2022-09-18T13:46:36.705Z,3.53
2022-09-18T13:49:16.190Z,3.50
2022-09-18T13:51:44.260Z,1.60
2022-09-18T13:54:29.395Z,5.10
2022-09-18T13:57:29.672Z,1.03
2022-09-18T14:00:01.700Z,1.57
2022-09-18T14:02:33.149Z,4.37
2022-09-18T14:05:27.514Z,2.93
2022-09-18T14:08:00.204Z,0.40
2022-09-18T14:10:32.071Z,5.33
2022-09-18T14:13:28.302Z,3.90
2022-09-18T14:16:02.817Z,2.73
2022-09-18T14:18:35.102Z,3.20
2022-09-18T14:21:19.752Z,1.73
2022-09-18T14:24:36.422Z,1.63
2022-09-18T14:27:34.350Z,1.37
2022-09-18T14:30:13.133Z,3.47
2022-09-18T14:32:45.649Z,2.20
2022-09-18T14:35:23.539Z,3.63
2022-09-18T14:37:51.540Z,3.43
2022-09-18T14:40:21.941Z,2.33
2022-09-18T14:42:50.913Z,4.27
2022-09-18T14:45:26.642Z,3.40
2022-09-18T14:47:56.828Z,2.67
2022-09-18T14:50:28.047Z,2.07
2022-09-18T14:52:57.028Z,2.10
2022-09-18T14:55:29.911Z,1.40
2022-09-18T14:58:02.175Z,3.07
2022-09-18T15:00:32.441Z,4.80
2022-09-18T15:03:04.870Z,1.37
2022-09-18T15:05:34.017Z,1.73
2022-09-18T15:08:04.963Z,1.63
2022-09-18T15:10:35.585Z,2.73
2022-09-18T15:13:07.714Z,2.80
2022-09-18T15:15:38.292Z,1.27
2022-09-18T15:18:19.564Z,1.53
2022-09-18T15:20:52.599Z,3.03
2022-09-18T15:23:26.016Z,2.10
2022-09-18T15:25:56.403Z,1.90
2022-09-18T15:28:27.026Z,1.33
2022-09-18T15:30:58.392Z,1.53
2022-09-18T15:33:29.150Z,1.20
2022-09-18T15:35:57.705Z,4.60
2022-09-18T15:38:31.882Z,1.77
2022-09-18T15:40:59.915Z,1.20
2022-09-18T15:43:41.186Z,1.93
2022-09-18T15:46:10.973Z,0.57
2022-09-18T15:48:45.023Z,1.97
2022-09-18T15:51:17.197Z,1.73
2022-09-18T15:54:09.321Z,3.03
2022-09-18T15:56:40.506Z,2.47
2022-09-18T15:59:18.558Z,2.00
2022-09-18T16:01:48.900Z,1.97
2022-09-18T16:04:21.259Z,2.43
2022-09-18T16:06:58.215Z,1.40
2022-09-18T16:09:34.898Z,1.57
2022-09-18T16:12:03.504Z,1.47
2022-09-18T16:14:46.656Z,1.23
2022-09-18T16:17:36.567Z,3.63
2022-09-18T16:20:34.987Z,1.27
2022-09-18T16:23:24.122Z,2.73
2022-09-18T16:26:08.697Z,4.03
2022-09-18T16:28:40.708Z,2.07
2022-09-18T16:31:08.793Z,4.53
2022-09-18T16:33:48.561Z,1.87
2022-09-18T16:36:25.622Z,2.17
2022-09-18T16:38:53.617Z,1.77
2022-09-18T16:41:21.764Z,1.40
2022-09-18T16:43:51.336Z,3.67
2022-09-18T16:46:20.763Z,5.03
2022-09-18T16:48:49.335Z,2.10
2022-09-18T16:51:18.786Z,2.57
2022-09-18T16:53:46.831Z,2.77
2022-09-18T16:56:18.673Z,2.03
2022-09-18T16:58:46.754Z,3.73
2022-09-18T17:01:15.659Z,1.97
2022-09-18T17:03:43.770Z,0.93
2022-09-18T17:06:14.143Z,3.47
2022-09-18T17:08:46.954Z,2.70
2022-09-18T17:11:15.057Z,5.43
2022-09-18T17:13:43.634Z,3.97
2022-09-18T17:16:11.654Z,3.43
2022-09-18T17:18:40.818Z,4.03
2022-09-18T17:21:08.935Z,2.53
2022-09-18T17:23:37.054Z,2.60
2022-09-18T17:26:09.915Z,2.40
2022-09-18T17:28:38.235Z,2.73
2022-09-18T17:34:47.445Z,2.57
2022-09-18T17:37:15.564Z,4.43
2022-09-18T17:39:43.871Z,3.67
2022-09-18T17:42:13.443Z,1.20
2022-09-18T17:44:41.440Z,3.57
2022-09-18T17:47:09.577Z,4.47
2022-09-18T17:49:37.748Z,5.70
2022-09-18T17:52:06.262Z,1.37
2022-09-18T17:54:36.045Z,2.30
2022-09-18T17:57:11.354Z,5.77
2022-09-18T17:59:42.223Z,3.10
2022-09-18T18:02:12.401Z,3.30
2022-09-18T18:04:40.591Z,1.60
2022-09-18T18:07:09.147Z,2.67
2022-09-18T18:09:37.935Z,2.93
2022-09-18T18:12:06.568Z,2.33
2022-09-18T18:14:34.714Z,4.83
2022-09-18T18:17:04.348Z,2.97
2022-09-18T18:19:32.488Z,1.83
2022-09-18T18:22:00.675Z,1.60
2022-09-18T18:24:29.813Z,4.33
2022-09-18T18:26:58.324Z,1.77
2022-09-18T18:29:26.492Z,1.77
2022-09-18T18:31:54.656Z,3.33
2022-09-18T18:34:25.337Z,4.20
2022-09-18T18:36:53.694Z,4.50
2022-09-18T18:39:21.845Z,1.77
2022-09-18T18:41:50.378Z,2.20
2022-09-18T18:44:18.531Z,2.17
2022-09-18T18:46:46.631Z,1.70
2022-09-18T18:49:16.204Z,2.00
2022-09-18T18:51:47.948Z,3.13
2022-09-18T18:54:18.051Z,4.30
2022-09-18T18:56:46.324Z,4.77
2022-09-18T18:59:17.144Z,2.03
2022-09-18T19:01:45.810Z,4.97
2022-09-18T19:04:16.181Z,4.43
2022-09-18T19:06:46.123Z,3.77
2022-09-18T19:09:19.995Z,3.07
2022-09-18T19:11:49.244Z,3.50
2022-09-18T19:14:19.404Z,3.30
2022-09-18T19:16:48.493Z,6.60
2022-09-18T19:19:18.164Z,4.60
2022-09-18T19:21:47.904Z,5.43
2022-09-18T19:24:18.542Z,4.73
2022-09-18T19:26:47.969Z,3.50
2022-09-18T19:29:17.965Z,4.83
2022-09-18T19:31:47.543Z,4.53
2022-09-18T19:34:17.002Z,8.30
2022-09-18T19:36:50.179Z,4.67
2022-09-18T19:39:23.900Z,5.43
2022-09-18T19:46:02.239Z,3.10
2022-09-18T19:48:30.386Z,5.07
2022-09-18T19:50:58.478Z,2.40
2022-09-18T19:53:26.633Z,5.17
2022-09-18T19:55:56.243Z,2.40
2022-09-18T19:58:24.292Z,4.33
2022-09-18T20:00:52.377Z,6.63
2022-09-18T20:03:21.181Z,4.23
2022-09-18T20:05:49.250Z,6.53
2022-09-18T20:08:17.296Z,5.73
2022-09-18T20:10:45.417Z,6.10
2022-09-18T20:13:14.874Z,5.40
2022-09-18T20:15:44.725Z,3.97
2022-09-18T20:18:13.029Z,9.73
2022-09-18T20:20:41.383Z,6.23
2022-09-18T20:23:09.373Z,4.00
2022-09-18T20:25:37.420Z,5.83
2022-09-18T20:28:05.447Z,8.13
2022-09-18T20:30:34.837Z,4.90
2022-09-18T20:33:04.309Z,6.47
2022-09-18T20:35:32.382Z,5.77
2022-09-18T20:38:05.695Z,7.47
2022-09-18T20:55:49.456Z,5.70
2022-09-18T20:58:19.145Z,5.13
2022-09-18T21:00:48.550Z,6.87
2022-09-18T21:03:17.417Z,6.73
2022-09-18T21:05:59.013Z,8.37
2022-09-18T21:08:35.783Z,7.93
2022-09-18T21:11:07.359Z,8.00
2022-09-18T21:13:35.660Z,7.00
2022-09-18T21:16:04.980Z,6.20
2022-09-18T21:18:36.482Z,6.57
2022-09-18T21:21:09.198Z,12.53
2022-09-18T21:23:58.556Z,6.33
2022-09-18T21:26:34.835Z,5.83
2022-09-18T21:29:07.351Z,9.33
2022-09-18T21:31:42.329Z,6.27
2022-09-18T21:34:11.848Z,9.53
2022-09-18T21:36:46.883Z,7.90
2022-09-18T21:39:16.825Z,5.53
2022-09-18T21:41:49.007Z,5.67
2022-09-18T21:44:23.565Z,7.13
2022-09-18T21:46:52.348Z,9.37
2022-09-18T21:49:23.817Z,5.70
2022-09-18T21:51:56.609Z,7.37
2022-09-18T21:54:25.485Z,9.27
2022-09-18T21:56:56.611Z,11.30
2022-09-18T21:59:26.840Z,5.53
2022-09-18T22:01:55.566Z,6.90
2022-09-18T22:04:26.166Z,4.03
2022-09-18T22:06:55.755Z,10.93
2022-09-18T22:09:28.797Z,5.03
2022-09-18T22:11:59.575Z,8.07
2022-09-18T22:14:31.358Z,7.63
2022-09-18T22:17:00.051Z,6.43
2022-09-18T22:19:29.208Z,6.37
2022-09-18T22:21:59.121Z,7.47
2022-09-18T22:24:30.093Z,7.50
2022-09-18T22:27:08.338Z,11.73
2022-09-18T22:29:39.372Z,10.97
2022-09-18T22:32:10.137Z,9.90
2022-09-18T22:34:38.280Z,6.10
2022-09-18T22:37:07.929Z,9.13
2022-09-18T22:39:36.071Z,10.47
2022-09-18T22:42:05.748Z,8.43
2022-09-18T22:44:33.771Z,11.07
2022-09-18T22:47:02.961Z,5.03
2022-09-18T22:49:31.101Z,7.30
2022-09-18T22:52:00.291Z,5.50
2022-09-18T22:54:31.242Z,7.57
2022-09-18T22:56:59.439Z,11.13
2022-09-18T22:59:32.475Z,10.60
2022-09-18T23:02:02.828Z,6.63
2022-09-18T23:04:33.586Z,7.30
2022-09-18T23:07:02.579Z,11.20
2022-09-18T23:09:31.428Z,11.53
2022-09-18T23:12:00.072Z,12.37
2022-09-18T23:14:31.407Z,11.07
2022-09-18T23:17:02.913Z,14.50
2022-09-18T23:19:33.503Z,10.20
2022-09-18T23:22:09.968Z,7.10
2022-09-18T23:24:40.205Z,11.57
2022-09-18T23:27:10.659Z,6.60
2022-09-18T23:29:41.148Z,11.40
2022-09-18T23:32:12.341Z,12.13
2022-09-18T23:34:40.605Z,9.17
2022-09-18T23:37:08.623Z,13.20
2022-09-18T23:39:36.723Z,9.10
2022-09-18T23:42:08.925Z,11.17
2022-09-18T23:44:36.938Z,8.03
2022-09-18T23:47:06.623Z,12.40
2022-09-18T23:49:38.602Z,11.37
2022-09-18T23:52:06.621Z,9.77
2022-09-18T23:54:34.929Z,8.40
2022-09-18T23:57:02.971Z,11.50
2022-09-18T23:59:31.109Z,10.07
